sensor_id;sensor_type;location;lat;lon;timestamp;P1;durP1;ratioP1;P2;durP2;ratioP2
4422;SDS011;2224;49.814;8.650;2024-03-23T00:54:31;16.77;;;14.97;;
4422;SDS011;2224;49.814;8.650;2024-03-23T00:56:56;17.53;;;15.47;;
4422;SDS011;2224;49.814;8.650;2024-03-23T00:59:22;17.87;;;15.80;;
4422;SDS011;2224;49.814;8.650;2024-03-23T01:01:52;17.53;;;15.77;;
4422;SDS011;2224;49.814;8.650;2024-03-23T01:04:17;19.17;;;16.03;;
4422;SDS011;2224;49.814;8.650;2024-03-23T01:06:42;19.53;;;16.80;;
4422;SDS011;2224;49.814;8.650;2024-03-23T01:09:08;20.30;;;17.00;;
4422;SDS011;2224;49.814;8.650;2024-03-23T01:11:35;18.07;;;16.17;;
4422;SDS011;2224;49.814;8.650;2024-03-23T01:14:01;19.53;;;15.60;;
4422;SDS011;2224;49.814;8.650;2024-03-23T01:16:26;17.60;;;15.67;;
4422;SDS011;2224;49.814;8.650;2024-03-23T01:18:51;23.53;;;16.53;;
4422;SDS011;2224;49.814;8.650;2024-03-23T01:21:17;24.40;;;17.30;;
4422;SDS011;2224;49.814;8.650;2024-03-23T01:23:42;18.57;;;16.40;;
4422;SDS011;2224;49.814;8.650;2024-03-23T01:26:08;19.17;;;16.83;;
4422;SDS011;2224;49.814;8.650;2024-03-23T01:28:33;22.60;;;17.60;;
4422;SDS011;2224;49.814;8.650;2024-03-23T01:30:58;21.53;;;16.50;;
4422;SDS011;2224;49.814;8.650;2024-03-23T01:33:24;18.90;;;17.00;;
4422;SDS011;2224;49.814;8.650;2024-03-23T01:35:49;21.73;;;17.60;;
4422;SDS011;2224;49.814;8.650;2024-03-23T01:38:14;20.97;;;16.70;;
4422;SDS011;2224;49.814;8.650;2024-03-23T01:40:39;21.93;;;18.43;;
4422;SDS011;2224;49.814;8.650;2024-03-23T01:43:05;22.47;;;16.67;;
4422;SDS011;2224;49.814;8.650;2024-03-23T01:45:33;21.37;;;16.80;;
4422;SDS011;2224;49.814;8.650;2024-03-23T01:47:59;22.13;;;17.00;;
4422;SDS011;2224;49.814;8.650;2024-03-23T01:50:24;20.60;;;17.47;;
4422;SDS011;2224;49.814;8.650;2024-03-23T01:52:50;21.23;;;17.40;;
4422;SDS011;2224;49.814;8.650;2024-03-23T01:55:16;19.97;;;17.70;;
4422;SDS011;2224;49.814;8.650;2024-03-23T01:57:41;20.80;;;17.23;;
4422;SDS011;2224;49.814;8.650;2024-03-23T02:00:07;19.17;;;17.13;;
4422;SDS011;2224;49.814;8.650;2024-03-23T02:02:32;19.90;;;16.40;;
4422;SDS011;2224;49.814;8.650;2024-03-23T02:04:57;19.33;;;17.20;;
4422;SDS011;2224;49.814;8.650;2024-03-23T02:07:23;19.90;;;17.33;;
4422;SDS011;2224;49.814;8.650;2024-03-23T02:09:50;22.70;;;17.80;;
4422;SDS011;2224;49.814;8.650;2024-03-23T02:12:16;21.67;;;17.83;;
4422;SDS011;2224;49.814;8.650;2024-03-23T02:14:42;20.03;;;17.90;;
4422;SDS011;2224;49.814;8.650;2024-03-23T02:17:07;20.93;;;18.57;;
4422;SDS011;2224;49.814;8.650;2024-03-23T02:19:33;22.73;;;18.47;;
4422;SDS011;2224;49.814;8.650;2024-03-23T02:21:59;20.87;;;18.43;;
4422;SDS011;2224;49.814;8.650;2024-03-23T02:24:24;21.73;;;18.90;;
4422;SDS011;2224;49.814;8.650;2024-03-23T02:26:50;21.87;;;19.63;;
4422;SDS011;2224;49.814;8.650;2024-03-23T02:29:15;20.00;;;17.90;;
4422;SDS011;2224;49.814;8.650;2024-03-23T02:31:40;21.60;;;18.00;;
4422;SDS011;2224;49.814;8.650;2024-03-23T02:34:06;20.23;;;18.17;;
4422;SDS011;2224;49.814;8.650;2024-03-23T02:36:31;21.37;;;17.77;;
4422;SDS011;2224;49.814;8.650;2024-03-23T02:38:56;26.03;;;18.90;;
4422;SDS011;2224;49.814;8.650;2024-03-23T02:41:21;24.17;;;19.67;;
4422;SDS011;2224;49.814;8.650;2024-03-23T02:43:51;20.77;;;17.50;;
4422;SDS011;2224;49.814;8.650;2024-03-23T02:46:16;24.37;;;19.03;;
4422;SDS011;2224;49.814;8.650;2024-03-23T02:48:42;20.10;;;17.80;;
4422;SDS011;2224;49.814;8.650;2024-03-23T02:51:07;22.50;;;20.10;;
4422;SDS011;2224;49.814;8.650;2024-03-23T02:53:33;23.57;;;17.73;;
4422;SDS011;2224;49.814;8.650;2024-03-23T02:55:59;23.10;;;18.80;;
4422;SDS011;2224;49.814;8.650;2024-03-23T02:58:24;21.20;;;16.97;;
4422;SDS011;2224;49.814;8.650;2024-03-23T03:00:49;22.47;;;19.23;;
4422;SDS011;2224;49.814;8.650;2024-03-23T03:03:15;19.93;;;17.40;;
4422;SDS011;2224;49.814;8.650;2024-03-23T03:05:40;21.00;;;17.70;;
4422;SDS011;2224;49.814;8.650;2024-03-23T03:08:05;19.60;;;16.90;;
4422;SDS011;2224;49.814;8.650;2024-03-23T03:10:31;19.67;;;17.60;;
4422;SDS011;2224;49.814;8.650;2024-03-23T03:12:59;22.53;;;17.50;;
4422;SDS011;2224;49.814;8.650;2024-03-23T03:15:25;19.37;;;17.30;;
4422;SDS011;2224;49.814;8.650;2024-03-23T03:17:50;19.27;;;17.13;;
4422;SDS011;2224;49.814;8.650;2024-03-23T03:20:16;23.63;;;17.67;;
4422;SDS011;2224;49.814;8.650;2024-03-23T03:22:42;21.83;;;17.10;;
4422;SDS011;2224;49.814;8.650;2024-03-23T03:25:08;20.93;;;18.00;;
4422;SDS011;2224;49.814;8.650;2024-03-23T03:27:33;24.10;;;17.73;;
4422;SDS011;2224;49.814;8.650;2024-03-23T03:29:59;21.83;;;17.23;;
4422;SDS011;2224;49.814;8.650;2024-03-23T03:32:27;19.43;;;16.90;;
4422;SDS011;2224;49.814;8.650;2024-03-23T03:34:53;19.93;;;16.90;;
4422;SDS011;2224;49.814;8.650;2024-03-23T03:37:19;23.30;;;18.20;;
4422;SDS011;2224;49.814;8.650;2024-03-23T03:39:44;22.73;;;17.97;;
4422;SDS011;2224;49.814;8.650;2024-03-23T03:42:09;22.30;;;18.07;;
4422;SDS011;2224;49.814;8.650;2024-03-23T03:44:35;19.83;;;17.70;;
4422;SDS011;2224;49.814;8.650;2024-03-23T03:47:01;21.07;;;18.30;;
4422;SDS011;2224;49.814;8.650;2024-03-23T03:49:27;24.60;;;19.37;;
4422;SDS011;2224;49.814;8.650;2024-03-23T03:51:52;23.47;;;18.40;;
4422;SDS011;2224;49.814;8.650;2024-03-23T03:54:17;22.40;;;18.67;;
4422;SDS011;2224;49.814;8.650;2024-03-23T03:56:43;29.33;;;18.93;;
4422;SDS011;2224;49.814;8.650;2024-03-23T03:59:08;26.30;;;19.67;;
4422;SDS011;2224;49.814;8.650;2024-03-23T04:01:34;23.73;;;19.87;;
4422;SDS011;2224;49.814;8.650;2024-03-23T04:04:00;21.23;;;16.97;;
4422;SDS011;2224;49.814;8.650;2024-03-23T04:06:26;24.67;;;18.50;;
4422;SDS011;2224;49.814;8.650;2024-03-23T04:08:51;25.67;;;19.80;;
4422;SDS011;2224;49.814;8.650;2024-03-23T04:11:16;24.10;;;16.90;;
4422;SDS011;2224;49.814;8.650;2024-03-23T04:13:42;22.23;;;18.10;;
4422;SDS011;2224;49.814;8.650;2024-03-23T04:16:08;28.30;;;20.10;;
4422;SDS011;2224;49.814;8.650;2024-03-23T04:18:34;26.17;;;19.53;;
4422;SDS011;2224;49.814;8.650;2024-03-23T04:21:00;27.37;;;20.03;;
4422;SDS011;2224;49.814;8.650;2024-03-23T04:23:25;24.30;;;18.23;;
4422;SDS011;2224;49.814;8.650;2024-03-23T04:25:50;27.10;;;18.60;;
4422;SDS011;2224;49.814;8.650;2024-03-23T04:28:18;24.03;;;19.10;;
4422;SDS011;2224;49.814;8.650;2024-03-23T04:30:43;24.13;;;18.13;;
4422;SDS011;2224;49.814;8.650;2024-03-23T04:33:08;23.93;;;17.63;;
4422;SDS011;2224;49.814;8.650;2024-03-23T04:35:34;23.20;;;19.80;;
4422;SDS011;2224;49.814;8.650;2024-03-23T04:37:59;28.67;;;21.20;;
4422;SDS011;2224;49.814;8.650;2024-03-23T04:40:25;30.70;;;23.10;;
4422;SDS011;2224;49.814;8.650;2024-03-23T04:42:51;29.40;;;21.23;;
4422;SDS011;2224;49.814;8.650;2024-03-23T04:45:16;32.77;;;22.70;;
4422;SDS011;2224;49.814;8.650;2024-03-23T04:47:41;28.00;;;20.40;;
4422;SDS011;2224;49.814;8.650;2024-03-23T04:50:07;21.77;;;14.50;;
4422;SDS011;2224;49.814;8.650;2024-03-23T04:52:33;18.40;;;12.83;;
4422;SDS011;2224;49.814;8.650;2024-03-23T04:54:58;12.60;;;10.53;;
4422;SDS011;2224;49.814;8.650;2024-03-23T04:57:23;11.27;;;9.20;;
4422;SDS011;2224;49.814;8.650;2024-03-23T04:59:49;9.57;;;6.87;;
4422;SDS011;2224;49.814;8.650;2024-03-23T05:02:14;8.67;;;5.83;;
4422;SDS011;2224;49.814;8.650;2024-03-23T05:04:40;7.23;;;4.90;;
4422;SDS011;2224;49.814;8.650;2024-03-23T05:07:05;7.20;;;4.87;;
4422;SDS011;2224;49.814;8.650;2024-03-23T05:09:31;5.13;;;4.00;;
4422;SDS011;2224;49.814;8.650;2024-03-23T05:11:57;6.27;;;4.03;;
4422;SDS011;2224;49.814;8.650;2024-03-23T05:14:23;4.47;;;3.00;;
4422;SDS011;2224;49.814;8.650;2024-03-23T05:16:48;2.90;;;2.63;;
4422;SDS011;2224;49.814;8.650;2024-03-23T05:19:13;3.70;;;2.90;;
4422;SDS011;2224;49.814;8.650;2024-03-23T05:21:39;3.40;;;2.77;;
4422;SDS011;2224;49.814;8.650;2024-03-23T05:24:04;4.97;;;2.60;;
4422;SDS011;2224;49.814;8.650;2024-03-23T05:26:30;3.03;;;2.50;;
4422;SDS011;2224;49.814;8.650;2024-03-23T05:28:56;4.23;;;2.67;;
4422;SDS011;2224;49.814;8.650;2024-03-23T05:31:28;3.10;;;2.80;;
4422;SDS011;2224;49.814;8.650;2024-03-23T05:33:55;2.83;;;2.50;;
4422;SDS011;2224;49.814;8.650;2024-03-23T05:36:20;4.27;;;2.47;;
4422;SDS011;2224;49.814;8.650;2024-03-23T05:38:46;2.13;;;1.93;;
4422;SDS011;2224;49.814;8.650;2024-03-23T05:41:11;2.57;;;2.20;;
4422;SDS011;2224;49.814;8.650;2024-03-23T05:43:36;2.43;;;2.23;;
4422;SDS011;2224;49.814;8.650;2024-03-23T05:46:02;2.80;;;2.50;;
4422;SDS011;2224;49.814;8.650;2024-03-23T05:48:27;3.60;;;2.90;;
4422;SDS011;2224;49.814;8.650;2024-03-23T05:50:53;3.80;;;2.70;;
4422;SDS011;2224;49.814;8.650;2024-03-23T05:53:19;8.00;;;3.50;;
4422;SDS011;2224;49.814;8.650;2024-03-23T05:55:48;3.70;;;3.20;;
4422;SDS011;2224;49.814;8.650;2024-03-23T05:58:15;4.93;;;4.10;;
4422;SDS011;2224;49.814;8.650;2024-03-23T06:00:41;5.30;;;4.57;;
4422;SDS011;2224;49.814;8.650;2024-03-23T06:03:07;5.57;;;5.07;;
4422;SDS011;2224;49.814;8.650;2024-03-23T06:05:33;5.77;;;5.10;;
4422;SDS011;2224;49.814;8.650;2024-03-23T06:07:58;5.27;;;4.77;;
4422;SDS011;2224;49.814;8.650;2024-03-23T06:10:23;7.70;;;7.00;;
4422;SDS011;2224;49.814;8.650;2024-03-23T06:12:49;6.10;;;5.47;;
4422;SDS011;2224;49.814;8.650;2024-03-23T06:15:16;7.33;;;6.63;;
4422;SDS011;2224;49.814;8.650;2024-03-23T06:17:42;6.13;;;5.53;;
4422;SDS011;2224;49.814;8.650;2024-03-23T06:20:07;5.63;;;5.13;;
4422;SDS011;2224;49.814;8.650;2024-03-23T06:22:33;6.73;;;5.00;;
4422;SDS011;2224;49.814;8.650;2024-03-23T06:24:58;4.67;;;4.27;;
4422;SDS011;2224;49.814;8.650;2024-03-23T06:27:24;4.90;;;4.40;;
4422;SDS011;2224;49.814;8.650;2024-03-23T06:29:49;4.53;;;4.13;;
4422;SDS011;2224;49.814;8.650;2024-03-23T06:32:14;4.03;;;3.73;;
4422;SDS011;2224;49.814;8.650;2024-03-23T06:34:43;3.90;;;3.50;;
4422;SDS011;2224;49.814;8.650;2024-03-23T06:37:09;4.60;;;4.03;;
4422;SDS011;2224;49.814;8.650;2024-03-23T06:39:35;4.00;;;3.53;;
4422;SDS011;2224;49.814;8.650;2024-03-23T06:42:01;3.70;;;3.40;;
4422;SDS011;2224;49.814;8.650;2024-03-23T06:44:27;4.00;;;3.53;;
4422;SDS011;2224;49.814;8.650;2024-03-23T06:46:52;3.10;;;2.90;;
4422;SDS011;2224;49.814;8.650;2024-03-23T06:49:17;3.70;;;3.40;;
4422;SDS011;2224;49.814;8.650;2024-03-23T06:51:44;3.00;;;2.80;;
4422;SDS011;2224;49.814;8.650;2024-03-23T06:54:10;3.10;;;2.80;;
4422;SDS011;2224;49.814;8.650;2024-03-23T06:56:35;2.63;;;2.43;;
4422;SDS011;2224;49.814;8.650;2024-03-23T06:59:00;2.80;;;2.50;;
4422;SDS011;2224;49.814;8.650;2024-03-23T07:01:26;2.60;;;2.40;;
4422;SDS011;2224;49.814;8.650;2024-03-23T07:03:51;2.40;;;2.20;;
4422;SDS011;2224;49.814;8.650;2024-03-23T07:06:17;2.53;;;2.33;;
4422;SDS011;2224;49.814;8.650;2024-03-23T07:08:42;3.17;;;2.60;;
4422;SDS011;2224;49.814;8.650;2024-03-23T07:11:07;3.00;;;2.80;;
4422;SDS011;2224;49.814;8.650;2024-03-23T07:13:32;3.80;;;3.47;;
4422;SDS011;2224;49.814;8.650;2024-03-23T07:15:58;4.50;;;3.60;;
4422;SDS011;2224;49.814;8.650;2024-03-23T07:18:25;4.07;;;3.77;;
4422;SDS011;2224;49.814;8.650;2024-03-23T07:20:53;3.40;;;3.10;;
4422;SDS011;2224;49.814;8.650;2024-03-23T07:23:19;3.40;;;3.20;;
4422;SDS011;2224;49.814;8.650;2024-03-23T07:25:45;2.97;;;2.77;;
4422;SDS011;2224;49.814;8.650;2024-03-23T07:28:10;2.90;;;2.70;;
4422;SDS011;2224;49.814;8.650;2024-03-23T07:30:35;2.90;;;2.70;;
4422;SDS011;2224;49.814;8.650;2024-03-23T07:33:01;2.93;;;2.73;;
4422;SDS011;2224;49.814;8.650;2024-03-23T07:35:26;3.30;;;2.97;;
4422;SDS011;2224;49.814;8.650;2024-03-23T07:37:51;2.70;;;2.50;;
4422;SDS011;2224;49.814;8.650;2024-03-23T07:40:17;5.77;;;2.60;;
4422;SDS011;2224;49.814;8.650;2024-03-23T07:42:42;2.70;;;2.33;;
4422;SDS011;2224;49.814;8.650;2024-03-23T07:45:07;4.40;;;2.30;;
4422;SDS011;2224;49.814;8.650;2024-03-23T07:47:34;3.43;;;2.27;;
4422;SDS011;2224;49.814;8.650;2024-03-23T07:49:59;3.60;;;2.13;;
4422;SDS011;2224;49.814;8.650;2024-03-23T07:52:27;2.57;;;2.37;;
4422;SDS011;2224;49.814;8.650;2024-03-23T07:54:53;4.33;;;2.10;;
4422;SDS011;2224;49.814;8.650;2024-03-23T07:57:18;2.13;;;1.93;;
4422;SDS011;2224;49.814;8.650;2024-03-23T07:59:44;2.37;;;2.17;;
4422;SDS011;2224;49.814;8.650;2024-03-23T08:02:09;6.00;;;2.80;;
4422;SDS011;2224;49.814;8.650;2024-03-23T08:04:35;2.87;;;2.43;;
4422;SDS011;2224;49.814;8.650;2024-03-23T08:07:01;5.00;;;2.97;;
4422;SDS011;2224;49.814;8.650;2024-03-23T08:09:26;3.67;;;2.83;;
4422;SDS011;2224;49.814;8.650;2024-03-23T08:11:51;3.20;;;2.80;;
4422;SDS011;2224;49.814;8.650;2024-03-23T08:14:17;5.20;;;2.93;;
4422;SDS011;2224;49.814;8.650;2024-03-23T08:16:42;6.27;;;4.17;;
4422;SDS011;2224;49.814;8.650;2024-03-23T08:19:13;5.90;;;4.47;;
4422;SDS011;2224;49.814;8.650;2024-03-23T08:21:38;5.00;;;3.57;;
4422;SDS011;2224;49.814;8.650;2024-03-23T08:24:04;6.33;;;4.33;;
4422;SDS011;2224;49.814;8.650;2024-03-23T08:26:30;6.57;;;5.97;;
4422;SDS011;2224;49.814;8.650;2024-03-23T08:28:55;5.23;;;4.70;;
4422;SDS011;2224;49.814;8.650;2024-03-23T08:31:20;6.90;;;4.80;;
4422;SDS011;2224;49.814;8.650;2024-03-23T08:33:46;6.67;;;5.53;;
4422;SDS011;2224;49.814;8.650;2024-03-23T08:36:12;6.60;;;5.47;;
4422;SDS011;2224;49.814;8.650;2024-03-23T08:38:39;7.73;;;5.73;;
4422;SDS011;2224;49.814;8.650;2024-03-23T08:43:31;13.10;;;7.23;;
4422;SDS011;2224;49.814;8.650;2024-03-23T08:46:07;7.10;;;6.30;;
4422;SDS011;2224;49.814;8.650;2024-03-23T08:48:37;11.93;;;7.87;;
4422;SDS011;2224;49.814;8.650;2024-03-23T08:51:08;8.67;;;6.57;;
4422;SDS011;2224;49.814;8.650;2024-03-23T08:53:34;7.60;;;6.00;;
4422;SDS011;2224;49.814;8.650;2024-03-23T08:56:00;9.83;;;6.47;;
4422;SDS011;2224;49.814;8.650;2024-03-23T08:58:26;12.00;;;6.60;;
4422;SDS011;2224;49.814;8.650;2024-03-23T09:00:53;10.30;;;5.90;;
4422;SDS011;2224;49.814;8.650;2024-03-23T09:03:23;9.33;;;6.77;;
4422;SDS011;2224;49.814;8.650;2024-03-23T09:05:49;10.47;;;5.60;;
4422;SDS011;2224;49.814;8.650;2024-03-23T09:08:14;6.00;;;4.80;;
4422;SDS011;2224;49.814;8.650;2024-03-23T09:10:40;10.13;;;5.33;;
4422;SDS011;2224;49.814;8.650;2024-03-23T09:13:05;7.10;;;5.53;;
4422;SDS011;2224;49.814;8.650;2024-03-23T09:15:31;10.30;;;5.93;;
4422;SDS011;2224;49.814;8.650;2024-03-23T09:18:00;8.80;;;6.40;;
4422;SDS011;2224;49.814;8.650;2024-03-23T09:20:25;12.80;;;7.13;;
4422;SDS011;2224;49.814;8.650;2024-03-23T09:22:50;16.27;;;9.47;;
4422;SDS011;2224;49.814;8.650;2024-03-23T09:25:16;7.90;;;5.97;;
4422;SDS011;2224;49.814;8.650;2024-03-23T09:27:41;9.00;;;6.13;;
4422;SDS011;2224;49.814;8.650;2024-03-23T09:30:06;11.47;;;7.60;;
4422;SDS011;2224;49.814;8.650;2024-03-23T09:32:32;17.13;;;6.67;;
4422;SDS011;2224;49.814;8.650;2024-03-23T09:34:57;9.67;;;5.20;;
4422;SDS011;2224;49.814;8.650;2024-03-23T09:37:23;7.50;;;4.90;;
4422;SDS011;2224;49.814;8.650;2024-03-23T09:39:48;11.73;;;6.03;;
4422;SDS011;2224;49.814;8.650;2024-03-23T09:42:13;9.90;;;5.07;;
4422;SDS011;2224;49.814;8.650;2024-03-23T09:44:39;7.97;;;4.80;;
4422;SDS011;2224;49.814;8.650;2024-03-23T09:47:05;12.30;;;5.80;;
4422;SDS011;2224;49.814;8.650;2024-03-23T09:49:30;6.73;;;5.40;;
4422;SDS011;2224;49.814;8.650;2024-03-23T09:51:57;10.47;;;4.40;;
4422;SDS011;2224;49.814;8.650;2024-03-23T09:54:22;10.30;;;5.30;;
4422;SDS011;2224;49.814;8.650;2024-03-23T09:56:48;8.50;;;5.03;;
4422;SDS011;2224;49.814;8.650;2024-03-23T09:59:13;7.53;;;5.00;;
4422;SDS011;2224;49.814;8.650;2024-03-23T10:01:39;6.00;;;4.53;;
4422;SDS011;2224;49.814;8.650;2024-03-23T10:04:04;10.77;;;5.40;;
4422;SDS011;2224;49.814;8.650;2024-03-23T10:06:30;11.60;;;5.40;;
4422;SDS011;2224;49.814;8.650;2024-03-23T10:08:55;7.03;;;4.53;;
4422;SDS011;2224;49.814;8.650;2024-03-23T10:11:21;8.10;;;4.27;;
4422;SDS011;2224;49.814;8.650;2024-03-23T10:13:46;8.63;;;4.93;;
4422;SDS011;2224;49.814;8.650;2024-03-23T10:16:12;7.90;;;4.83;;
4422;SDS011;2224;49.814;8.650;2024-03-23T10:18:46;11.40;;;5.50;;
4422;SDS011;2224;49.814;8.650;2024-03-23T10:21:11;8.27;;;5.30;;
4422;SDS011;2224;49.814;8.650;2024-03-23T10:23:37;7.07;;;4.70;;
4422;SDS011;2224;49.814;8.650;2024-03-23T10:28:55;6.23;;;2.97;;
4422;SDS011;2224;49.814;8.650;2024-03-23T10:31:32;8.70;;;4.60;;
4422;SDS011;2224;49.814;8.650;2024-03-23T10:33:58;4.23;;;3.23;;
4422;SDS011;2224;49.814;8.650;2024-03-23T10:36:25;4.57;;;3.07;;
4422;SDS011;2224;49.814;8.650;2024-03-23T10:38:51;2.97;;;2.53;;
4422;SDS011;2224;49.814;8.650;2024-03-23T10:41:17;5.63;;;2.90;;
4422;SDS011;2224;49.814;8.650;2024-03-23T10:43:44;6.60;;;2.50;;
4422;SDS011;2224;49.814;8.650;2024-03-23T10:46:11;6.13;;;3.03;;
4422;SDS011;2224;49.814;8.650;2024-03-23T10:48:36;4.67;;;2.80;;
4422;SDS011;2224;49.814;8.650;2024-03-23T10:51:01;11.17;;;3.43;;
4422;SDS011;2224;49.814;8.650;2024-03-23T10:53:27;4.73;;;2.90;;
4422;SDS011;2224;49.814;8.650;2024-03-23T10:55:53;7.07;;;2.83;;
4422;SDS011;2224;49.814;8.650;2024-03-23T10:58:21;5.13;;;2.40;;
4422;SDS011;2224;49.814;8.650;2024-03-23T11:00:49;6.20;;;2.80;;
4422;SDS011;2224;49.814;8.650;2024-03-23T11:03:33;13.00;;;2.80;;
4422;SDS011;2224;49.814;8.650;2024-03-23T11:06:01;2.70;;;1.90;;
4422;SDS011;2224;49.814;8.650;2024-03-23T11:08:31;3.67;;;2.40;;
4422;SDS011;2224;49.814;8.650;2024-03-23T11:14:22;4.63;;;3.67;;
4422;SDS011;2224;49.814;8.650;2024-03-23T11:16:48;4.70;;;2.37;;
4422;SDS011;2224;49.814;8.650;2024-03-23T11:19:34;4.20;;;2.10;;
4422;SDS011;2224;49.814;8.650;2024-03-23T11:22:02;3.30;;;2.37;;
4422;SDS011;2224;49.814;8.650;2024-03-23T11:24:28;4.67;;;2.93;;
4422;SDS011;2224;49.814;8.650;2024-03-23T11:26:54;3.30;;;2.47;;
4422;SDS011;2224;49.814;8.650;2024-03-23T11:29:19;5.53;;;3.13;;
4422;SDS011;2224;49.814;8.650;2024-03-23T11:31:48;8.60;;;3.10;;
4422;SDS011;2224;49.814;8.650;2024-03-23T11:34:17;6.43;;;2.80;;
4422;SDS011;2224;49.814;8.650;2024-03-23T11:36:46;6.30;;;3.23;;
4422;SDS011;2224;49.814;8.650;2024-03-23T11:39:12;4.23;;;3.67;;
4422;SDS011;2224;49.814;8.650;2024-03-23T11:41:49;5.80;;;2.90;;
4422;SDS011;2224;49.814;8.650;2024-03-23T11:44:16;2.87;;;2.27;;
4422;SDS011;2224;49.814;8.650;2024-03-23T11:46:41;5.57;;;2.40;;
4422;SDS011;2224;49.814;8.650;2024-03-23T11:49:06;5.13;;;2.57;;
4422;SDS011;2224;49.814;8.650;2024-03-23T11:51:32;3.00;;;2.60;;
4422;SDS011;2224;49.814;8.650;2024-03-23T11:54:07;3.83;;;2.70;;
4422;SDS011;2224;49.814;8.650;2024-03-23T11:56:33;14.67;;;6.90;;
4422;SDS011;2224;49.814;8.650;2024-03-23T11:58:58;7.53;;;4.10;;
4422;SDS011;2224;49.814;8.650;2024-03-23T12:01:23;3.33;;;1.80;;
4422;SDS011;2224;49.814;8.650;2024-03-23T12:03:49;3.47;;;1.70;;
4422;SDS011;2224;49.814;8.650;2024-03-23T12:06:19;4.03;;;1.70;;
4422;SDS011;2224;49.814;8.650;2024-03-23T12:08:44;5.20;;;2.03;;
4422;SDS011;2224;49.814;8.650;2024-03-23T12:11:17;1.30;;;1.20;;
4422;SDS011;2224;49.814;8.650;2024-03-23T12:13:43;1.83;;;1.30;;
4422;SDS011;2224;49.814;8.650;2024-03-23T12:16:11;6.23;;;1.87;;
4422;SDS011;2224;49.814;8.650;2024-03-23T12:18:43;3.23;;;1.83;;
4422;SDS011;2224;49.814;8.650;2024-03-23T12:21:09;4.73;;;1.70;;
4422;SDS011;2224;49.814;8.650;2024-03-23T12:23:35;4.77;;;2.17;;
4422;SDS011;2224;49.814;8.650;2024-03-23T12:26:01;4.03;;;1.93;;
4422;SDS011;2224;49.814;8.650;2024-03-23T12:28:26;2.73;;;1.87;;
4422;SDS011;2224;49.814;8.650;2024-03-23T12:30:52;7.43;;;2.07;;
4422;SDS011;2224;49.814;8.650;2024-03-23T12:33:18;5.77;;;2.20;;
4422;SDS011;2224;49.814;8.650;2024-03-23T12:35:43;4.83;;;2.00;;
4422;SDS011;2224;49.814;8.650;2024-03-23T12:38:08;3.50;;;2.00;;
4422;SDS011;2224;49.814;8.650;2024-03-23T12:40:34;3.70;;;2.27;;
4422;SDS011;2224;49.814;8.650;2024-03-23T12:42:59;3.37;;;1.90;;
4422;SDS011;2224;49.814;8.650;2024-03-23T12:45:25;5.30;;;2.50;;
4422;SDS011;2224;49.814;8.650;2024-03-23T12:47:50;6.10;;;2.43;;
4422;SDS011;2224;49.814;8.650;2024-03-23T12:50:18;4.40;;;2.90;;
4422;SDS011;2224;49.814;8.650;2024-03-23T12:52:44;3.00;;;2.57;;
4422;SDS011;2224;49.814;8.650;2024-03-23T12:55:09;4.50;;;2.60;;
4422;SDS011;2224;49.814;8.650;2024-03-23T12:57:35;4.30;;;2.70;;
4422;SDS011;2224;49.814;8.650;2024-03-23T13:00:01;5.23;;;2.93;;
4422;SDS011;2224;49.814;8.650;2024-03-23T13:02:26;4.13;;;2.40;;
4422;SDS011;2224;49.814;8.650;2024-03-23T13:04:52;7.27;;;2.60;;
4422;SDS011;2224;49.814;8.650;2024-03-23T13:07:18;3.40;;;2.77;;
4422;SDS011;2224;49.814;8.650;2024-03-23T13:09:44;4.80;;;3.03;;
4422;SDS011;2224;49.814;8.650;2024-03-23T13:12:09;4.60;;;2.40;;
4422;SDS011;2224;49.814;8.650;2024-03-23T13:14:37;3.77;;;2.33;;
4422;SDS011;2224;49.814;8.650;2024-03-23T13:17:02;5.27;;;3.07;;
4422;SDS011;2224;49.814;8.650;2024-03-23T13:19:28;5.20;;;2.90;;
4422;SDS011;2224;49.814;8.650;2024-03-23T13:21:56;4.27;;;2.57;;
4422;SDS011;2224;49.814;8.650;2024-03-23T13:24:22;4.10;;;2.50;;
4422;SDS011;2224;49.814;8.650;2024-03-23T13:26:49;3.50;;;2.60;;
4422;SDS011;2224;49.814;8.650;2024-03-23T13:29:20;4.53;;;3.23;;
4422;SDS011;2224;49.814;8.650;2024-03-23T13:31:47;6.37;;;3.53;;
4422;SDS011;2224;49.814;8.650;2024-03-23T13:34:13;14.63;;;8.33;;
4422;SDS011;2224;49.814;8.650;2024-03-23T13:36:40;7.30;;;4.00;;
4422;SDS011;2224;49.814;8.650;2024-03-23T13:39:09;12.30;;;7.70;;
4422;SDS011;2224;49.814;8.650;2024-03-23T13:41:44;5.20;;;3.50;;
4422;SDS011;2224;49.814;8.650;2024-03-23T13:44:10;4.47;;;3.00;;
4422;SDS011;2224;49.814;8.650;2024-03-23T13:46:36;7.77;;;4.40;;
4422;SDS011;2224;49.814;8.650;2024-03-23T13:49:02;4.90;;;3.23;;
4422;SDS011;2224;49.814;8.650;2024-03-23T13:51:28;6.50;;;3.90;;
4422;SDS011;2224;49.814;8.650;2024-03-23T13:53:53;5.73;;;2.80;;
4422;SDS011;2224;49.814;8.650;2024-03-23T13:56:19;5.97;;;2.87;;
4422;SDS011;2224;49.814;8.650;2024-03-23T13:58:45;4.50;;;2.90;;
4422;SDS011;2224;49.814;8.650;2024-03-23T14:01:12;8.10;;;2.83;;
4422;SDS011;2224;49.814;8.650;2024-03-23T14:03:38;2.50;;;2.00;;
4422;SDS011;2224;49.814;8.650;2024-03-23T14:06:03;3.70;;;2.47;;
4422;SDS011;2224;49.814;8.650;2024-03-23T14:08:29;2.57;;;1.90;;
4422;SDS011;2224;49.814;8.650;2024-03-23T14:10:57;3.70;;;1.77;;
4422;SDS011;2224;49.814;8.650;2024-03-23T14:13:22;2.73;;;2.00;;
4422;SDS011;2224;49.814;8.650;2024-03-23T14:15:52;3.63;;;1.77;;
4422;SDS011;2224;49.814;8.650;2024-03-23T14:18:18;1.73;;;1.40;;
4422;SDS011;2224;49.814;8.650;2024-03-23T14:20:43;4.63;;;1.97;;
4422;SDS011;2224;49.814;8.650;2024-03-23T14:23:09;3.83;;;1.83;;
4422;SDS011;2224;49.814;8.650;2024-03-23T14:25:34;2.53;;;1.30;;
4422;SDS011;2224;49.814;8.650;2024-03-23T14:27:59;3.10;;;1.70;;
4422;SDS011;2224;49.814;8.650;2024-03-23T14:30:25;3.93;;;1.70;;
4422;SDS011;2224;49.814;8.650;2024-03-23T14:32:50;1.80;;;1.30;;
4422;SDS011;2224;49.814;8.650;2024-03-23T14:35:16;3.33;;;1.90;;
4422;SDS011;2224;49.814;8.650;2024-03-23T14:37:41;1.97;;;1.50;;
4422;SDS011;2224;49.814;8.650;2024-03-23T14:40:07;3.23;;;1.63;;
4422;SDS011;2224;49.814;8.650;2024-03-23T14:42:33;2.67;;;1.53;;
4422;SDS011;2224;49.814;8.650;2024-03-23T14:44:58;2.93;;;1.53;;
4422;SDS011;2224;49.814;8.650;2024-03-23T14:47:24;1.30;;;1.10;;
4422;SDS011;2224;49.814;8.650;2024-03-23T14:49:49;2.03;;;1.17;;
4422;SDS011;2224;49.814;8.650;2024-03-23T14:52:17;5.33;;;1.30;;
4422;SDS011;2224;49.814;8.650;2024-03-23T14:54:45;1.30;;;1.00;;
4422;SDS011;2224;49.814;8.650;2024-03-23T14:57:11;1.67;;;0.83;;
4422;SDS011;2224;49.814;8.650;2024-03-23T14:59:37;1.70;;;0.90;;
4422;SDS011;2224;49.814;8.650;2024-03-23T15:02:08;2.63;;;1.00;;
4422;SDS011;2224;49.814;8.650;2024-03-23T15:04:34;2.03;;;0.90;;
4422;SDS011;2224;49.814;8.650;2024-03-23T15:06:59;1.53;;;1.00;;
4422;SDS011;2224;49.814;8.650;2024-03-23T15:09:25;2.43;;;0.90;;
4422;SDS011;2224;49.814;8.650;2024-03-23T15:11:50;1.07;;;0.97;;
4422;SDS011;2224;49.814;8.650;2024-03-23T15:14:16;2.50;;;1.10;;
4422;SDS011;2224;49.814;8.650;2024-03-23T15:16:41;1.73;;;1.10;;
4422;SDS011;2224;49.814;8.650;2024-03-23T15:19:09;1.00;;;0.90;;
4422;SDS011;2224;49.814;8.650;2024-03-23T15:21:35;1.00;;;0.83;;
4422;SDS011;2224;49.814;8.650;2024-03-23T15:24:00;1.93;;;0.80;;
4422;SDS011;2224;49.814;8.650;2024-03-23T15:26:25;2.90;;;1.27;;
4422;SDS011;2224;49.814;8.650;2024-03-23T15:28:51;1.40;;;0.77;;
4422;SDS011;2224;49.814;8.650;2024-03-23T15:31:22;1.33;;;0.90;;
4422;SDS011;2224;49.814;8.650;2024-03-23T15:33:47;1.20;;;0.93;;
4422;SDS011;2224;49.814;8.650;2024-03-23T15:36:13;1.10;;;0.83;;
4422;SDS011;2224;49.814;8.650;2024-03-23T15:38:38;2.07;;;0.90;;
4422;SDS011;2224;49.814;8.650;2024-03-23T15:41:03;1.43;;;1.13;;
4422;SDS011;2224;49.814;8.650;2024-03-23T15:43:29;1.30;;;0.93;;
4422;SDS011;2224;49.814;8.650;2024-03-23T15:45:56;2.50;;;1.17;;
4422;SDS011;2224;49.814;8.650;2024-03-23T15:48:23;1.10;;;1.00;;
4422;SDS011;2224;49.814;8.650;2024-03-23T15:50:51;1.43;;;1.00;;
4422;SDS011;2224;49.814;8.650;2024-03-23T15:53:27;1.07;;;0.90;;
4422;SDS011;2224;49.814;8.650;2024-03-23T15:55:53;1.30;;;1.03;;
4422;SDS011;2224;49.814;8.650;2024-03-23T15:58:19;1.60;;;1.30;;
4422;SDS011;2224;49.814;8.650;2024-03-23T16:00:45;3.47;;;1.10;;
4422;SDS011;2224;49.814;8.650;2024-03-23T16:03:11;5.90;;;1.10;;